sensor_id;sensor_type;location;lat;lon;timestamp;pressure;altitude;pressure_sealevel;temperature;humidity
60479;BME280;46321;48.398;11.754;2023-05-31T00:00:57;96900.38;;;14.42;44.69
60479;BME280;46321;48.398;11.754;2023-05-31T00:03:22;96897.81;;;14.34;44.39
60479;BME280;46321;48.398;11.754;2023-05-31T00:05:48;96899.59;;;14.49;44.47
60479;BME280;46321;48.398;11.754;2023-05-31T00:08:13;96897.72;;;14.42;44.53
60479;BME280;46321;48.398;11.754;2023-05-31T00:10:38;96900.94;;;14.38;44.10
60479;BME280;46321;48.398;11.754;2023-05-31T00:13:04;96903.69;;;14.29;44.26
60479;BME280;46321;48.398;11.754;2023-05-31T00:15:29;96898.44;;;14.14;44.14
60479;BME280;46321;48.398;11.754;2023-05-31T00:17:54;96899.34;;;14.22;44.46
60479;BME280;46321;48.398;11.754;2023-05-31T00:20:20;96901.28;;;14.13;44.44
60479;BME280;46321;48.398;11.754;2023-05-31T00:22:45;96895.75;;;13.92;44.28
60479;BME280;46321;48.398;11.754;2023-05-31T00:25:11;96891.63;;;13.74;44.58
60479;BME280;46321;48.398;11.754;2023-05-31T00:27:36;96906.25;;;14.01;43.95
60479;BME280;46321;48.398;11.754;2023-05-31T00:30:01;96897.91;;;14.04;44.13
60479;BME280;46321;48.398;11.754;2023-05-31T00:32:26;96901.72;;;14.16;43.54
60479;BME280;46321;48.398;11.754;2023-05-31T00:34:52;96906.63;;;14.13;43.57
60479;BME280;46321;48.398;11.754;2023-05-31T00:37:17;96911.97;;;13.98;43.98
60479;BME280;46321;48.398;11.754;2023-05-31T00:39:42;96905.91;;;14.04;43.62
60479;BME280;46321;48.398;11.754;2023-05-31T00:42:08;96906.09;;;14.02;43.52
60479;BME280;46321;48.398;11.754;2023-05-31T00:44:35;96906.47;;;13.99;43.59
60479;BME280;46321;48.398;11.754;2023-05-31T00:47:00;96907.28;;;14.00;42.99
60479;BME280;46321;48.398;11.754;2023-05-31T00:49:26;96905.00;;;13.96;43.20
60479;BME280;46321;48.398;11.754;2023-05-31T00:51:52;96912.44;;;13.86;43.03
60479;BME280;46321;48.398;11.754;2023-05-31T00:54:18;96910.19;;;13.68;43.09
60479;BME280;46321;48.398;11.754;2023-05-31T00:56:43;96909.13;;;13.54;43.74
60479;BME280;46321;48.398;11.754;2023-05-31T00:59:09;96906.38;;;13.47;43.54
60479;BME280;46321;48.398;11.754;2023-05-31T01:01:35;96911.66;;;13.70;43.25
60479;BME280;46321;48.398;11.754;2023-05-31T01:04:01;96909.44;;;13.59;43.46
60479;BME280;46321;48.398;11.754;2023-05-31T01:06:27;96911.66;;;13.70;43.23
60479;BME280;46321;48.398;11.754;2023-05-31T01:08:57;96905.06;;;13.66;43.32
60479;BME280;46321;48.398;11.754;2023-05-31T01:11:33;96899.72;;;13.66;42.98
60479;BME280;46321;48.398;11.754;2023-05-31T01:16:36;96896.59;;;13.47;43.07
60479;BME280;46321;48.398;11.754;2023-05-31T01:19:12;96896.69;;;13.39;43.32
60479;BME280;46321;48.398;11.754;2023-05-31T01:22:04;96896.59;;;13.32;43.02
60479;BME280;46321;48.398;11.754;2023-05-31T01:25:07;96898.31;;;13.25;43.31
60479;BME280;46321;48.398;11.754;2023-05-31T01:27:37;96893.53;;;13.20;43.07
60479;BME280;46321;48.398;11.754;2023-05-31T01:30:04;96892.09;;;13.33;43.25
60479;BME280;46321;48.398;11.754;2023-05-31T01:32:31;96903.63;;;13.10;43.11
60479;BME280;46321;48.398;11.754;2023-05-31T01:34:56;96891.72;;;13.05;43.43
60479;BME280;46321;48.398;11.754;2023-05-31T01:37:22;96889.16;;;13.12;43.54
60479;BME280;46321;48.398;11.754;2023-05-31T01:39:47;96895.94;;;13.15;43.42
60479;BME280;46321;48.398;11.754;2023-05-31T01:42:14;96889.94;;;13.13;43.52
60479;BME280;46321;48.398;11.754;2023-05-31T01:44:40;96875.75;;;13.05;43.70
60479;BME280;46321;48.398;11.754;2023-05-31T01:47:07;96890.34;;;13.10;43.61
60479;BME280;46321;48.398;11.754;2023-05-31T01:49:33;96883.63;;;12.84;44.28
60479;BME280;46321;48.398;11.754;2023-05-31T01:51:59;96880.13;;;12.83;44.36
60479;BME280;46321;48.398;11.754;2023-05-31T01:54:25;96885.69;;;12.88;44.06
60479;BME280;46321;48.398;11.754;2023-05-31T01:56:52;96877.47;;;12.83;44.29
60479;BME280;46321;48.398;11.754;2023-05-31T01:59:17;96889.28;;;12.80;44.31
60479;BME280;46321;48.398;11.754;2023-05-31T02:01:44;96881.88;;;12.91;44.17
60479;BME280;46321;48.398;11.754;2023-05-31T02:04:09;96888.44;;;12.80;44.40
60479;BME280;46321;48.398;11.754;2023-05-31T02:06:36;96885.69;;;12.73;44.35
60479;BME280;46321;48.398;11.754;2023-05-31T02:09:02;96890.03;;;12.89;43.96
60479;BME280;46321;48.398;11.754;2023-05-31T02:11:27;96887.91;;;12.85;44.01
60479;BME280;46321;48.398;11.754;2023-05-31T02:13:53;96893.84;;;12.87;44.12
60479;BME280;46321;48.398;11.754;2023-05-31T02:16:18;96898.53;;;12.85;44.33
60479;BME280;46321;48.398;11.754;2023-05-31T02:18:44;96888.06;;;12.68;44.18
60479;BME280;46321;48.398;11.754;2023-05-31T02:21:09;96897.66;;;12.69;44.72
60479;BME280;46321;48.398;11.754;2023-05-31T02:23:35;96890.34;;;12.71;44.20
60479;BME280;46321;48.398;11.754;2023-05-31T02:26:00;96894.31;;;12.52;45.15
60479;BME280;46321;48.398;11.754;2023-05-31T02:28:25;96890.72;;;12.68;45.04
60479;BME280;46321;48.398;11.754;2023-05-31T02:33:20;96895.56;;;12.79;45.16
60479;BME280;46321;48.398;11.754;2023-05-31T02:35:45;96889.91;;;12.82;45.90
60479;BME280;46321;48.398;11.754;2023-05-31T02:38:10;96888.94;;;12.84;45.46
60479;BME280;46321;48.398;11.754;2023-05-31T02:40:36;96887.38;;;12.89;45.71
60479;BME280;46321;48.398;11.754;2023-05-31T02:43:01;96887.97;;;12.76;45.16
60479;BME280;46321;48.398;11.754;2023-05-31T02:45:26;96888.47;;;12.56;45.73
60479;BME280;46321;48.398;11.754;2023-05-31T02:47:51;96885.63;;;12.58;46.05
60479;BME280;46321;48.398;11.754;2023-05-31T02:50:17;96899.44;;;12.53;45.70
60479;BME280;46321;48.398;11.754;2023-05-31T02:52:42;96903.53;;;12.41;45.94
60479;BME280;46321;48.398;11.754;2023-05-31T02:55:07;96896.38;;;12.41;46.05
60479;BME280;46321;48.398;11.754;2023-05-31T02:57:33;96902.63;;;12.48;46.10
60479;BME280;46321;48.398;11.754;2023-05-31T03:00:01;96895.84;;;12.46;46.30
60479;BME280;46321;48.398;11.754;2023-05-31T03:02:34;96904.88;;;12.36;46.33
60479;BME280;46321;48.398;11.754;2023-05-31T03:04:59;96898.63;;;12.29;46.51
60479;BME280;46321;48.398;11.754;2023-05-31T03:07:24;96910.00;;;12.38;46.64
60479;BME280;46321;48.398;11.754;2023-05-31T03:09:50;96901.34;;;12.44;46.76
60479;BME280;46321;48.398;11.754;2023-05-31T03:12:15;96907.34;;;12.38;46.68
60479;BME280;46321;48.398;11.754;2023-05-31T03:14:40;96907.81;;;12.42;46.77
60479;BME280;46321;48.398;11.754;2023-05-31T03:17:06;96907.81;;;12.18;47.17
60479;BME280;46321;48.398;11.754;2023-05-31T03:19:31;96906.56;;;11.97;47.60
60479;BME280;46321;48.398;11.754;2023-05-31T03:21:57;96903.69;;;12.16;47.54
60479;BME280;46321;48.398;11.754;2023-05-31T03:24:22;96906.38;;;12.07;47.78
60479;BME280;46321;48.398;11.754;2023-05-31T03:26:47;96904.75;;;11.98;47.97
60479;BME280;46321;48.398;11.754;2023-05-31T03:29:13;96910.66;;;12.08;47.96
60479;BME280;46321;48.398;11.754;2023-05-31T03:31:38;96905.34;;;12.08;47.83
60479;BME280;46321;48.398;11.754;2023-05-31T03:34:04;96910.47;;;12.10;47.35
60479;BME280;46321;48.398;11.754;2023-05-31T03:36:29;96912.94;;;12.20;47.36
60479;BME280;46321;48.398;11.754;2023-05-31T03:38:54;96907.97;;;12.17;47.80
60479;BME280;46321;48.398;11.754;2023-05-31T03:41:20;96907.81;;;12.18;47.82
60479;BME280;46321;48.398;11.754;2023-05-31T03:43:45;96907.34;;;12.06;47.82
60479;BME280;46321;48.398;11.754;2023-05-31T03:46:10;96912.41;;;12.24;47.73
60479;BME280;46321;48.398;11.754;2023-05-31T03:48:35;96906.00;;;12.10;48.11
60479;BME280;46321;48.398;11.754;2023-05-31T03:51:01;96913.47;;;12.15;48.11
60479;BME280;46321;48.398;11.754;2023-05-31T03:53:26;96908.50;;;12.12;48.16
60479;BME280;46321;48.398;11.754;2023-05-31T03:55:51;96915.53;;;12.28;48.17
60479;BME280;46321;48.398;11.754;2023-05-31T03:58:17;96906.88;;;12.34;48.01
60479;BME280;46321;48.398;11.754;2023-05-31T04:00:42;96919.16;;;12.35;48.20
60479;BME280;46321;48.398;11.754;2023-05-31T04:03:08;96905.88;;;12.35;48.16
60479;BME280;46321;48.398;11.754;2023-05-31T04:05:34;96909.94;;;12.46;48.13
60479;BME280;46321;48.398;11.754;2023-05-31T04:07:59;96915.31;;;12.38;48.41
60479;BME280;46321;48.398;11.754;2023-05-31T04:10:27;96911.97;;;12.44;48.41
60479;BME280;46321;48.398;11.754;2023-05-31T04:12:52;96907.94;;;12.48;48.38
60479;BME280;46321;48.398;11.754;2023-05-31T04:15:17;96915.06;;;12.48;48.18
60479;BME280;46321;48.398;11.754;2023-05-31T04:17:42;96912.72;;;12.53;48.46
60479;BME280;46321;48.398;11.754;2023-05-31T04:20:08;96914.38;;;12.54;48.38
60479;BME280;46321;48.398;11.754;2023-05-31T04:22:34;96917.84;;;12.31;49.23
60479;BME280;46321;48.398;11.754;2023-05-31T04:25:04;96925.34;;;12.51;49.34
60479;BME280;46321;48.398;11.754;2023-05-31T04:27:31;96913.19;;;12.57;48.67
60479;BME280;46321;48.398;11.754;2023-05-31T04:29:58;96920.69;;;12.53;48.50
60479;BME280;46321;48.398;11.754;2023-05-31T04:32:24;96919.44;;;12.64;48.78
60479;BME280;46321;48.398;11.754;2023-05-31T04:34:50;96914.25;;;12.71;48.92
60479;BME280;46321;48.398;11.754;2023-05-31T04:37:25;96931.00;;;12.71;48.53
60479;BME280;46321;48.398;11.754;2023-05-31T04:39:57;96924.44;;;12.82;48.21
60479;BME280;46321;48.398;11.754;2023-05-31T04:42:26;96913.28;;;12.87;48.32
60479;BME280;46321;48.398;11.754;2023-05-31T04:44:52;96917.16;;;13.00;48.00
60479;BME280;46321;48.398;11.754;2023-05-31T04:47:23;96925.63;;;13.19;47.93
60479;BME280;46321;48.398;11.754;2023-05-31T04:49:49;96924.91;;;13.25;47.49
60479;BME280;46321;48.398;11.754;2023-05-31T04:52:14;96917.50;;;13.50;47.33
60479;BME280;46321;48.398;11.754;2023-05-31T04:54:40;96928.50;;;13.47;46.76
60479;BME280;46321;48.398;11.754;2023-05-31T04:57:06;96922.34;;;13.47;46.77
60479;BME280;46321;48.398;11.754;2023-05-31T04:59:31;96923.09;;;13.56;47.40
60479;BME280;46321;48.398;11.754;2023-05-31T05:01:57;96923.91;;;13.71;46.21
60479;BME280;46321;48.398;11.754;2023-05-31T05:04:22;96918.97;;;13.83;46.38
60479;BME280;46321;48.398;11.754;2023-05-31T05:06:47;96921.72;;;13.90;46.91
60479;BME280;46321;48.398;11.754;2023-05-31T05:09:13;96920.59;;;13.84;47.30
60479;BME280;46321;48.398;11.754;2023-05-31T05:11:38;96926.47;;;13.95;46.35
60479;BME280;46321;48.398;11.754;2023-05-31T05:14:04;96921.06;;;13.88;46.49
60479;BME280;46321;48.398;11.754;2023-05-31T05:16:29;96925.81;;;14.08;45.95
60479;BME280;46321;48.398;11.754;2023-05-31T05:18:55;96921.72;;;14.27;46.37
60479;BME280;46321;48.398;11.754;2023-05-31T05:21:21;96927.56;;;14.38;45.88
60479;BME280;46321;48.398;11.754;2023-05-31T05:23:46;96918.81;;;14.44;46.33
60479;BME280;46321;48.398;11.754;2023-05-31T05:26:12;96930.16;;;14.53;45.49
60479;BME280;46321;48.398;11.754;2023-05-31T05:28:37;96924.44;;;14.56;45.62
60479;BME280;46321;48.398;11.754;2023-05-31T05:31:03;96931.69;;;14.62;45.58
60479;BME280;46321;48.398;11.754;2023-05-31T05:33:29;96920.50;;;14.52;45.97
60479;BME280;46321;48.398;11.754;2023-05-31T05:35:54;96931.75;;;14.69;45.74
60479;BME280;46321;48.398;11.754;2023-05-31T05:38:20;96935.81;;;14.65;45.76
60479;BME280;46321;48.398;11.754;2023-05-31T05:40:46;96934.22;;;14.71;45.55
60479;BME280;46321;48.398;11.754;2023-05-31T05:43:11;96936.75;;;14.79;45.89
60479;BME280;46321;48.398;11.754;2023-05-31T05:45:36;96933.25;;;14.94;45.76
60479;BME280;46321;48.398;11.754;2023-05-31T05:48:01;96928.38;;;15.04;45.40
60479;BME280;46321;48.398;11.754;2023-05-31T05:50:27;96936.38;;;15.33;45.52
60479;BME280;46321;48.398;11.754;2023-05-31T05:52:52;96931.38;;;15.52;45.36
60479;BME280;46321;48.398;11.754;2023-05-31T05:55:18;96933.72;;;15.68;46.17
60479;BME280;46321;48.398;11.754;2023-05-31T05:57:44;96936.78;;;15.65;44.84
60479;BME280;46321;48.398;11.754;2023-05-31T06:00:11;96942.00;;;15.80;45.88
60479;BME280;46321;48.398;11.754;2023-05-31T06:02:37;96939.59;;;15.93;45.04
60479;BME280;46321;48.398;11.754;2023-05-31T06:05:03;96939.72;;;15.77;44.87
60479;BME280;46321;48.398;11.754;2023-05-31T06:07:28;96939.47;;;16.08;44.00
60479;BME280;46321;48.398;11.754;2023-05-31T06:09:54;96940.94;;;16.10;44.19
60479;BME280;46321;48.398;11.754;2023-05-31T06:12:20;96943.28;;;16.47;45.36
60479;BME280;46321;48.398;11.754;2023-05-31T06:14:46;96952.44;;;16.18;45.03
60479;BME280;46321;48.398;11.754;2023-05-31T06:17:11;96945.50;;;16.30;44.73
60479;BME280;46321;48.398;11.754;2023-05-31T06:19:36;96943.88;;;16.43;44.75
60479;BME280;46321;48.398;11.754;2023-05-31T06:22:01;96950.06;;;16.43;44.26
60479;BME280;46321;48.398;11.754;2023-05-31T06:24:27;96952.94;;;16.35;44.77
60479;BME280;46321;48.398;11.754;2023-05-31T06:26:52;96954.56;;;16.43;43.39
60479;BME280;46321;48.398;11.754;2023-05-31T06:29:17;96952.75;;;16.50;43.75
60479;BME280;46321;48.398;11.754;2023-05-31T06:31:43;96959.16;;;16.83;43.73
60479;BME280;46321;48.398;11.754;2023-05-31T06:34:08;96960.63;;;17.06;43.24
60479;BME280;46321;48.398;11.754;2023-05-31T06:36:34;96958.16;;;16.98;42.39
60479;BME280;46321;48.398;11.754;2023-05-31T06:39:00;96954.66;;;16.97;42.92
60479;BME280;46321;48.398;11.754;2023-05-31T06:41:25;96953.47;;;17.27;43.02
60479;BME280;46321;48.398;11.754;2023-05-31T06:43:51;96947.06;;;17.28;43.40
60479;BME280;46321;48.398;11.754;2023-05-31T06:46:17;96947.66;;;17.44;43.05
60479;BME280;46321;48.398;11.754;2023-05-31T06:48:42;96943.19;;;17.17;42.20
60479;BME280;46321;48.398;11.754;2023-05-31T06:51:07;96948.28;;;17.46;42.28
60479;BME280;46321;48.398;11.754;2023-05-31T06:53:32;96944.16;;;17.57;42.55
60479;BME280;46321;48.398;11.754;2023-05-31T06:55:58;96949.69;;;17.69;43.13
60479;BME280;46321;48.398;11.754;2023-05-31T06:58:23;96945.72;;;17.92;42.34
60479;BME280;46321;48.398;11.754;2023-05-31T07:00:49;96943.66;;;17.94;42.08
60479;BME280;46321;48.398;11.754;2023-05-31T07:03:14;96930.03;;;17.95;41.35
60479;BME280;46321;48.398;11.754;2023-05-31T07:05:39;96945.41;;;18.21;41.42
60479;BME280;46321;48.398;11.754;2023-05-31T07:08:09;96935.31;;;18.23;39.86
60479;BME280;46321;48.398;11.754;2023-05-31T07:10:35;96941.22;;;18.38;40.67
60479;BME280;46321;48.398;11.754;2023-05-31T07:13:00;96932.50;;;18.50;40.10
60479;BME280;46321;48.398;11.754;2023-05-31T07:15:25;96934.78;;;18.79;39.40
60479;BME280;46321;48.398;11.754;2023-05-31T07:17:52;96940.09;;;18.85;38.22
60479;BME280;46321;48.398;11.754;2023-05-31T07:20:17;96941.47;;;18.62;37.97
60479;BME280;46321;48.398;11.754;2023-05-31T07:22:42;96939.06;;;18.54;37.85
60479;BME280;46321;48.398;11.754;2023-05-31T07:25:08;96948.13;;;18.53;38.54
60479;BME280;46321;48.398;11.754;2023-05-31T07:27:33;96929.41;;;18.79;37.41
60479;BME280;46321;48.398;11.754;2023-05-31T07:29:58;96947.75;;;19.07;37.62
60479;BME280;46321;48.398;11.754;2023-05-31T07:32:24;96939.41;;;18.64;37.13
60479;BME280;46321;48.398;11.754;2023-05-31T07:34:49;96943.69;;;18.98;37.03
60479;BME280;46321;48.398;11.754;2023-05-31T07:37:14;96938.97;;;19.26;36.85
60479;BME280;46321;48.398;11.754;2023-05-31T07:39:40;96945.13;;;19.00;36.81
60479;BME280;46321;48.398;11.754;2023-05-31T07:42:05;96934.13;;;19.34;37.18
60479;BME280;46321;48.398;11.754;2023-05-31T07:44:31;96932.22;;;19.61;38.10
60479;BME280;46321;48.398;11.754;2023-05-31T07:46:56;96933.78;;;19.50;36.96
60479;BME280;46321;48.398;11.754;2023-05-31T07:49:21;96931.72;;;19.71;36.67
60479;BME280;46321;48.398;11.754;2023-05-31T07:54:14;96916.41;;;20.09;36.25
60479;BME280;46321;48.398;11.754;2023-05-31T07:56:40;96925.06;;;19.92;35.70
60479;BME280;46321;48.398;11.754;2023-05-31T07:59:05;96928.06;;;19.84;35.35
60479;BME280;46321;48.398;11.754;2023-05-31T08:01:32;96901.28;;;19.96;36.22
60479;BME280;46321;48.398;11.754;2023-05-31T08:04:13;96914.00;;;20.50;37.02
60479;BME280;46321;48.398;11.754;2023-05-31T08:06:39;96911.28;;;20.38;36.70
60479;BME280;46321;48.398;11.754;2023-05-31T08:09:06;96910.31;;;20.75;36.13
60479;BME280;46321;48.398;11.754;2023-05-31T08:11:32;96915.81;;;21.23;34.94
60479;BME280;46321;48.398;11.754;2023-05-31T08:13:57;96909.59;;;21.35;34.87
60479;BME280;46321;48.398;11.754;2023-05-31T08:16:23;96909.31;;;21.48;34.55
60479;BME280;46321;48.398;11.754;2023-05-31T08:18:48;96903.03;;;21.55;34.91
60479;BME280;46321;48.398;11.754;2023-05-31T08:21:14;96902.72;;;21.80;34.88
60479;BME280;46321;48.398;11.754;2023-05-31T08:23:40;96900.31;;;21.55;34.91
60479;BME280;46321;48.398;11.754;2023-05-31T08:26:05;96905.13;;;21.53;33.92
60479;BME280;46321;48.398;11.754;2023-05-31T08:28:30;96901.94;;;21.68;35.14
60479;BME280;46321;48.398;11.754;2023-05-31T08:30:56;96911.69;;;21.57;35.34
60479;BME280;46321;48.398;11.754;2023-05-31T08:33:21;96905.47;;;21.44;35.37
60479;BME280;46321;48.398;11.754;2023-05-31T08:35:46;96890.78;;;21.76;35.16
60479;BME280;46321;48.398;11.754;2023-05-31T08:38:12;96891.91;;;22.04;36.36
60479;BME280;46321;48.398;11.754;2023-05-31T08:40:38;96882.31;;;22.55;34.19
60479;BME280;46321;48.398;11.754;2023-05-31T08:43:08;96892.88;;;22.74;33.33
60479;BME280;46321;48.398;11.754;2023-05-31T08:45:41;96884.63;;;22.81;31.96
60479;BME280;46321;48.398;11.754;2023-05-31T08:48:28;96886.25;;;22.99;32.69
60479;BME280;46321;48.398;11.754;2023-05-31T08:50:56;96882.28;;;22.38;32.00
60479;BME280;46321;48.398;11.754;2023-05-31T08:53:25;96882.75;;;22.35;32.47
60479;BME280;46321;48.398;11.754;2023-05-31T08:55:52;96877.91;;;23.18;33.07
60479;BME280;46321;48.398;11.754;2023-05-31T08:58:19;96884.72;;;22.86;32.12
60479;BME280;46321;48.398;11.754;2023-05-31T09:00:44;96877.38;;;23.38;32.80
60479;BME280;46321;48.398;11.754;2023-05-31T09:03:11;96876.63;;;23.60;31.55
60479;BME280;46321;48.398;11.754;2023-05-31T09:05:36;96873.53;;;23.74;31.37
60479;BME280;46321;48.398;11.754;2023-05-31T09:08:02;96874.34;;;23.97;30.99
60479;BME280;46321;48.398;11.754;2023-05-31T09:10:28;96886.28;;;24.01;31.17
60479;BME280;46321;48.398;11.754;2023-05-31T09:12:53;96886.69;;;23.65;31.02
60479;BME280;46321;48.398;11.754;2023-05-31T09:15:22;96888.63;;;23.92;30.41
60479;BME280;46321;48.398;11.754;2023-05-31T09:17:47;96879.66;;;24.14;31.24
60479;BME280;46321;48.398;11.754;2023-05-31T09:20:13;96881.84;;;23.67;31.18
60479;BME280;46321;48.398;11.754;2023-05-31T09:22:38;96880.16;;;22.86;31.91
60479;BME280;46321;48.398;11.754;2023-05-31T09:25:04;96888.63;;;23.70;30.50
60479;BME280;46321;48.398;11.754;2023-05-31T09:27:38;96876.47;;;22.75;31.65
60479;BME280;46321;48.398;11.754;2023-05-31T09:30:09;96876.84;;;22.67;29.26
60479;BME280;46321;48.398;11.754;2023-05-31T09:32:35;96886.47;;;22.63;30.03
60479;BME280;46321;48.398;11.754;2023-05-31T09:35:14;96889.28;;;22.68;28.87
60479;BME280;46321;48.398;11.754;2023-05-31T09:37:45;96879.47;;;22.96;28.35
60479;BME280;46321;48.398;11.754;2023-05-31T09:40:23;96863.19;;;22.74;29.66
60479;BME280;46321;48.398;11.754;2023-05-31T09:42:50;96860.09;;;23.39;29.63
60479;BME280;46321;48.398;11.754;2023-05-31T09:45:16;96853.53;;;23.97;29.50
60479;BME280;46321;48.398;11.754;2023-05-31T09:47:41;96853.25;;;24.21;29.91
60479;BME280;46321;48.398;11.754;2023-05-31T09:50:10;96859.97;;;24.19;27.36
60479;BME280;46321;48.398;11.754;2023-05-31T09:52:36;96862.63;;;23.86;28.18
60479;BME280;46321;48.398;11.754;2023-05-31T09:55:07;96854.50;;;24.13;27.27
60479;BME280;46321;48.398;11.754;2023-05-31T09:57:34;96841.53;;;24.10;27.63
60479;BME280;46321;48.398;11.754;2023-05-31T10:00:06;96861.41;;;22.97;29.17
60479;BME280;46321;48.398;11.754;2023-05-31T10:02:41;96851.72;;;24.31;29.01
60479;BME280;46321;48.398;11.754;2023-05-31T10:05:08;96852.69;;;24.47;28.02
60479;BME280;46321;48.398;11.754;2023-05-31T10:07:34;96847.34;;;24.24;28.51
60479;BME280;46321;48.398;11.754;2023-05-31T10:10:00;96862.94;;;24.73;27.68
60479;BME280;46321;48.398;11.754;2023-05-31T10:12:26;96850.81;;;24.47;27.66
60479;BME280;46321;48.398;11.754;2023-05-31T10:15:00;96844.59;;;24.19;28.28
60479;BME280;46321;48.398;11.754;2023-05-31T10:17:28;96832.78;;;24.03;28.69
60479;BME280;46321;48.398;11.754;2023-05-31T10:20:03;96860.09;;;23.79;29.96
60479;BME280;46321;48.398;11.754;2023-05-31T10:22:33;96836.44;;;24.42;29.81
60479;BME280;46321;48.398;11.754;2023-05-31T10:25:07;96853.72;;;23.68;29.48
60479;BME280;46321;48.398;11.754;2023-05-31T10:30:01;96849.63;;;22.86;30.00
60479;BME280;46321;48.398;11.754;2023-05-31T10:32:34;96850.56;;;23.14;30.86
60479;BME280;46321;48.398;11.754;2023-05-31T10:35:03;96853.13;;;23.04;31.10
60479;BME280;46321;48.398;11.754;2023-05-31T10:37:29;96833.19;;;23.44;29.73
60479;BME280;46321;48.398;11.754;2023-05-31T10:42:43;96852.00;;;23.56;29.58
60479;BME280;46321;48.398;11.754;2023-05-31T10:45:20;96849.34;;;23.22;29.77
60479;BME280;46321;48.398;11.754;2023-05-31T10:47:50;96848.59;;;22.87;29.45
60479;BME280;46321;48.398;11.754;2023-05-31T10:50:20;96839.56;;;22.98;29.86
60479;BME280;46321;48.398;11.754;2023-05-31T10:53:09;96841.22;;;22.99;29.46
60479;BME280;46321;48.398;11.754;2023-05-31T10:55:42;96830.72;;;23.03;29.68
60479;BME280;46321;48.398;11.754;2023-05-31T10:58:32;96831.19;;;23.17;29.53
60479;BME280;46321;48.398;11.754;2023-05-31T11:01:10;96820.44;;;23.00;30.33
60479;BME280;46321;48.398;11.754;2023-05-31T11:03:44;96818.38;;;23.30;30.86
60479;BME280;46321;48.398;11.754;2023-05-31T11:06:13;96817.41;;;23.36;30.42
60479;BME280;46321;48.398;11.754;2023-05-31T11:11:28;96809.97;;;23.26;31.38
60479;BME280;46321;48.398;11.754;2023-05-31T11:19:15;96805.66;;;23.25;31.10
60479;BME280;46321;48.398;11.754;2023-05-31T11:22:15;96809.28;;;23.14;30.48
60479;BME280;46321;48.398;11.754;2023-05-31T11:24:54;96811.28;;;22.49;30.48
60479;BME280;46321;48.398;11.754;2023-05-31T11:27:21;96809.75;;;22.53;29.67
60479;BME280;46321;48.398;11.754;2023-05-31T11:32:19;96809.84;;;22.76;30.72
60479;BME280;46321;48.398;11.754;2023-05-31T11:34:49;96794.97;;;22.73;30.70
60479;BME280;46321;48.398;11.754;2023-05-31T11:37:16;96809.59;;;22.60;30.36
60479;BME280;46321;48.398;11.754;2023-05-31T11:39:45;96805.06;;;22.66;31.32
60479;BME280;46321;48.398;11.754;2023-05-31T11:42:10;96797.56;;;22.51;29.37
60479;BME280;46321;48.398;11.754;2023-05-31T11:44:44;96802.06;;;22.80;30.54
60479;BME280;46321;48.398;11.754;2023-05-31T11:47:16;96803.72;;;23.03;31.89
60479;BME280;46321;48.398;11.754;2023-05-31T11:49:41;96791.78;;;23.16;31.02
60479;BME280;46321;48.398;11.754;2023-05-31T11:52:07;96817.56;;;22.90;30.99
60479;BME280;46321;48.398;11.754;2023-05-31T11:54:33;96796.19;;;23.05;31.43
60479;BME280;46321;48.398;11.754;2023-05-31T11:57:03;96798.81;;;22.78;31.33
60479;BME280;46321;48.398;11.754;2023-05-31T11:59:30;96790.84;;;22.88;32.04
60479;BME280;46321;48.398;11.754;2023-05-31T12:01:58;96788.69;;;23.07;30.95
60479;BME280;46321;48.398;11.754;2023-05-31T12:04:41;96786.75;;;23.03;32.41
60479;BME280;46321;48.398;11.754;2023-05-31T12:07:10;96802.28;;;22.95;31.48
60479;BME280;46321;48.398;11.754;2023-05-31T12:09:35;96788.28;;;22.98;32.11
60479;BME280;46321;48.398;11.754;2023-05-31T12:12:02;96787.94;;;23.12;30.44
60479;BME280;46321;48.398;11.754;2023-05-31T12:14:28;96790.03;;;22.87;31.24
60479;BME280;46321;48.398;11.754;2023-05-31T12:16:54;96784.00;;;22.80;30.70
60479;BME280;46321;48.398;11.754;2023-05-31T12:19:20;96774.88;;;23.26;30.86
60479;BME280;46321;48.398;11.754;2023-05-31T12:21:46;96787.75;;;23.19;31.46
60479;BME280;46321;48.398;11.754;2023-05-31T12:24:13;96779.09;;;23.17;31.64
60479;BME280;46321;48.398;11.754;2023-05-31T12:26:39;96764.28;;;23.19;32.23
60479;BME280;46321;48.398;11.754;2023-05-31T12:29:04;96767.16;;;23.13;32.19
60479;BME280;46321;48.398;11.754;2023-05-31T12:31:33;96765.28;;;23.13;33.00
60479;BME280;46321;48.398;11.754;2023-05-31T12:36:37;96770.66;;;22.91;31.51
60479;BME280;46321;48.398;11.754;2023-05-31T12:39:06;96761.50;;;23.14;31.97
60479;BME280;46321;48.398;11.754;2023-05-31T12:41:33;96768.06;;;23.41;32.09
60479;BME280;46321;48.398;11.754;2023-05-31T12:43:58;96756.50;;;23.23;30.97
60479;BME280;46321;48.398;11.754;2023-05-31T12:46:23;96769.50;;;23.26;31.17
60479;BME280;46321;48.398;11.754;2023-05-31T12:48:48;96754.56;;;23.18;31.32
60479;BME280;46321;48.398;11.754;2023-05-31T12:51:20;96758.19;;;23.29;32.55
60479;BME280;46321;48.398;11.754;2023-05-31T12:53:45;96769.25;;;23.50;31.16
60479;BME280;46321;48.398;11.754;2023-05-31T12:56:11;96753.28;;;23.26;30.44
60479;BME280;46321;48.398;11.754;2023-05-31T12:58:36;96761.56;;;23.19;31.25
60479;BME280;46321;48.398;11.754;2023-05-31T13:01:01;96756.16;;;22.97;32.14
60479;BME280;46321;48.398;11.754;2023-05-31T13:03:27;96760.25;;;23.22;31.09
60479;BME280;46321;48.398;11.754;2023-05-31T13:05:52;96744.06;;;23.22;31.11
60479;BME280;46321;48.398;11.754;2023-05-31T13:08:17;96754.94;;;23.27;31.15
60479;BME280;46321;48.398;11.754;2023-05-31T13:10:42;96748.97;;;23.03;32.21
60479;BME280;46321;48.398;11.754;2023-05-31T13:13:08;96747.06;;;23.03;32.04
60479;BME280;46321;48.398;11.754;2023-05-31T13:15:33;96749.38;;;23.17;32.76